createdAt,value
2023-05-04T00:00:42.023Z,10.01
2023-05-04T00:01:42.023Z,10.09
2023-05-04T00:02:42.641Z,10.12
2023-05-04T00:03:42.060Z,10.10
2023-05-04T00:04:43.065Z,10.00
2023-05-04T00:05:43.009Z,10.07
2023-05-04T00:06:42.522Z,10.09
2023-05-04T00:07:43.057Z,10.25
2023-05-04T00:08:42.916Z,10.18
2023-05-04T00:09:44.040Z,10.22
2023-05-04T00:10:43.170Z,10.26
2023-05-04T00:11:43.332Z,10.30
2023-05-04T00:12:43.529Z,10.22
2023-05-04T00:13:43.701Z,10.19
2023-05-04T00:14:43.880Z,10.24
2023-05-04T00:15:44.070Z,10.30
2023-05-04T00:16:45.053Z,10.28
2023-05-04T00:17:46.020Z,10.21
2023-05-04T00:18:44.540Z,10.22
2023-05-04T00:19:45.727Z,10.22
2023-05-04T00:20:44.850Z,10.24
2023-05-04T00:21:45.553Z,10.19
2023-05-04T00:22:45.157Z,10.18
2023-05-04T00:23:45.329Z,10.22
2023-05-04T00:24:45.472Z,10.18
2023-05-04T00:25:46.519Z,10.21
2023-05-04T00:26:45.761Z,10.18
2023-05-04T00:27:45.903Z,10.15
2023-05-04T00:28:46.530Z,10.18
2023-05-04T00:29:46.189Z,10.15
2023-05-04T00:30:47.016Z,10.10
2023-05-04T00:31:47.043Z,10.10
2023-05-04T00:32:48.433Z,10.10
2023-05-04T00:33:47.485Z,10.04
2023-05-04T00:34:47.131Z,10.06
2023-05-04T00:35:47.302Z,10.03
2023-05-04T00:36:47.471Z,10.10
2023-05-04T00:37:48.032Z,10.07
2023-05-04T00:38:47.804Z,10.03
2023-05-04T00:39:47.981Z,10.10
2023-05-04T00:40:49.979Z,10.21
2023-05-04T00:41:48.989Z,10.22
2023-05-04T00:42:49.489Z,10.10
2023-05-04T00:43:48.760Z,10.07
2023-05-04T00:44:49.485Z,10.21
2023-05-04T00:45:50.041Z,10.24
2023-05-04T00:46:49.331Z,10.12
2023-05-04T00:47:49.554Z,10.26
2023-05-04T00:48:50.522Z,10.22
2023-05-04T00:49:49.885Z,10.19
2023-05-04T00:50:50.180Z,10.14
2023-05-04T00:51:50.879Z,10.12
2023-05-04T00:52:50.384Z,10.14
2023-05-04T00:53:51.034Z,10.10
2023-05-04T00:54:51.035Z,10.18
2023-05-04T00:55:50.908Z,10.03
2023-05-04T00:56:51.064Z,10.04
2023-05-04T00:57:51.178Z,10.09
2023-05-04T00:58:52.880Z,10.01
2023-05-04T00:59:52.491Z,9.96
2023-05-04T01:00:51.652Z,10.06
2023-05-04T01:01:51.796Z,10.06
2023-05-04T01:02:52.089Z,10.14
2023-05-04T01:03:53.094Z,10.09
2023-05-04T01:04:53.025Z,10.10
2023-05-04T01:05:52.643Z,10.06
2023-05-04T01:06:53.492Z,10.10
2023-05-04T01:07:52.979Z,10.14
2023-05-04T01:08:53.125Z,10.06
2023-05-04T01:09:53.282Z,10.12
2023-05-04T01:10:53.428Z,10.12
2023-05-04T01:11:53.660Z,10.14
2023-05-04T01:12:54.518Z,10.07
2023-05-04T01:13:54.527Z,10.10
2023-05-04T01:14:54.117Z,10.03
2023-05-04T01:15:54.260Z,10.04
2023-05-04T01:16:54.425Z,10.04
2023-05-04T01:17:54.597Z,10.03
2023-05-04T01:18:55.534Z,10.09
2023-05-04T01:20:16.026Z,9.97
2023-05-04T01:20:56.064Z,10.12
2023-05-04T01:21:55.424Z,10.09
2023-05-04T01:22:57.011Z,10.12
2023-05-04T01:23:56.536Z,10.10
2023-05-04T01:24:56.561Z,10.07
2023-05-04T01:25:57.892Z,10.21
2023-05-04T01:26:56.240Z,10.22
2023-05-04T01:27:56.359Z,10.21
2023-05-04T01:28:56.594Z,10.24
2023-05-04T01:29:56.831Z,10.24
2023-05-04T01:30:56.979Z,10.28
2023-05-04T01:31:58.000Z,10.22
2023-05-04T01:32:57.590Z,10.22
2023-05-04T01:33:57.596Z,10.25
2023-05-04T01:34:58.508Z,10.28
2023-05-04T01:35:58.517Z,10.25
2023-05-04T01:36:58.937Z,10.22
2023-05-04T01:37:58.123Z,10.25
2023-05-04T01:38:58.547Z,10.24
2023-05-04T01:39:58.534Z,10.21
2023-05-04T01:40:58.766Z,10.33
2023-05-04T01:41:59.533Z,10.30
2023-05-04T01:42:59.027Z,10.28
2023-05-04T01:43:59.190Z,10.44
2023-05-04T01:44:59.295Z,10.36
2023-05-04T01:45:59.590Z,10.44
2023-05-04T01:46:59.769Z,10.34
2023-05-04T01:47:59.927Z,10.36
2023-05-04T01:49:00.108Z,10.36
2023-05-04T01:50:01.074Z,10.46
2023-05-04T01:51:00.420Z,10.34
2023-05-04T01:52:00.570Z,10.55
2023-05-04T01:53:02.012Z,10.51
2023-05-04T01:54:01.497Z,10.53
2023-05-04T01:55:01.031Z,10.51
2023-05-04T01:56:01.214Z,10.52
2023-05-04T01:57:01.340Z,10.47
2023-05-04T01:58:02.048Z,10.51
2023-05-04T01:59:01.690Z,10.65
2023-05-04T02:00:02.712Z,10.40
2023-05-04T02:01:03.033Z,10.53
2023-05-04T02:02:02.242Z,10.44
2023-05-04T02:03:02.474Z,10.56
2023-05-04T02:04:02.785Z,10.59
2023-05-04T02:05:02.732Z,10.47
2023-05-04T02:06:02.876Z,10.42
2023-05-04T02:07:04.055Z,10.55
2023-05-04T02:08:04.006Z,10.53
2023-05-04T02:09:03.547Z,10.51
2023-05-04T02:10:04.709Z,10.66
2023-05-04T02:11:03.764Z,10.66
2023-05-04T02:12:03.948Z,10.62
2023-05-04T02:13:04.158Z,10.59
2023-05-04T02:14:04.265Z,10.60
2023-05-04T02:15:05.023Z,10.56
2023-05-04T02:16:04.755Z,10.56
2023-05-04T02:17:04.861Z,10.66
2023-05-04T02:18:05.078Z,10.68
2023-05-04T02:19:05.212Z,10.65
2023-05-04T02:20:06.355Z,10.66
2023-05-04T02:21:05.522Z,10.63
2023-05-04T02:22:06.632Z,10.66
2023-05-04T02:23:06.548Z,10.68
2023-05-04T02:24:07.048Z,10.73
2023-05-04T02:25:06.367Z,10.78
2023-05-04T02:26:07.560Z,10.78
2023-05-04T02:27:06.713Z,10.77
2023-05-04T02:28:06.902Z,10.77
2023-05-04T02:29:08.011Z,10.74
2023-05-04T02:30:07.552Z,10.68
2023-05-04T02:31:07.516Z,10.59
2023-05-04T02:32:09.534Z,10.60
2023-05-04T02:33:08.665Z,10.73
2023-05-04T02:34:09.043Z,10.66
2023-05-04T02:35:08.321Z,10.70
2023-05-04T02:36:08.501Z,10.68
2023-05-04T02:37:09.612Z,10.76
2023-05-04T02:38:09.525Z,10.68
2023-05-04T02:39:09.547Z,10.80
2023-05-04T02:40:10.049Z,10.70
2023-05-04T02:41:09.446Z,10.76
2023-05-04T02:42:10.081Z,10.76
2023-05-04T02:43:09.881Z,10.76
2023-05-04T02:44:10.078Z,10.68
2023-05-04T02:45:10.251Z,10.71
2023-05-04T02:46:11.061Z,10.71
2023-05-04T02:47:10.641Z,10.74
2023-05-04T02:48:10.832Z,10.70
2023-05-04T02:49:11.033Z,10.73
2023-05-04T02:50:12.052Z,10.77
2023-05-04T02:51:11.349Z,10.77
2023-05-04T02:52:12.903Z,10.68
2023-05-04T02:53:12.544Z,10.76
2023-05-04T02:54:12.520Z,10.66
2023-05-04T02:55:12.057Z,10.58
2023-05-04T02:56:12.211Z,10.66
2023-05-04T02:57:13.957Z,10.58
2023-05-04T02:58:13.517Z,10.65
2023-05-04T02:59:12.753Z,10.63
2023-05-04T03:00:12.879Z,10.65
2023-05-04T03:01:13.615Z,10.68
2023-05-04T03:02:14.055Z,10.68
2023-05-04T03:03:14.068Z,10.68
2023-05-04T03:04:14.046Z,10.68
2023-05-04T03:05:14.531Z,10.71
2023-05-04T03:06:14.520Z,10.62
2023-05-04T03:07:15.027Z,10.73
2023-05-04T03:08:14.139Z,10.74
2023-05-04T03:09:14.308Z,10.66
2023-05-04T03:10:14.476Z,10.68
2023-05-04T03:11:14.624Z,10.74
2023-05-04T03:12:14.782Z,10.73
2023-05-04T03:13:15.768Z,10.70
2023-05-04T03:14:15.103Z,10.76
2023-05-04T03:15:15.259Z,10.73
2023-05-04T03:16:16.073Z,10.71
2023-05-04T03:17:17.020Z,10.70
2023-05-04T03:18:15.759Z,10.66
2023-05-04T03:19:16.573Z,10.63
2023-05-04T03:20:17.030Z,10.66
2023-05-04T03:21:16.378Z,10.68
2023-05-04T03:22:16.529Z,10.65
2023-05-04T03:23:16.652Z,10.71
2023-05-04T03:24:17.679Z,10.66
2023-05-04T03:25:18.029Z,10.63
2023-05-04T03:26:17.256Z,10.60
2023-05-04T03:27:18.058Z,10.58
2023-05-04T03:28:18.536Z,10.63
2023-05-04T03:29:17.775Z,10.66
2023-05-04T03:30:17.926Z,10.66
2023-05-04T03:31:18.142Z,10.66
2023-05-04T03:32:19.072Z,10.73
2023-05-04T03:33:18.414Z,10.63
2023-05-04T03:34:19.574Z,10.65
2023-05-04T03:35:24.753Z,10.58
2023-05-04T03:36:19.993Z,10.77
2023-05-04T03:37:19.238Z,10.66
2023-05-04T03:38:19.358Z,10.77
2023-05-04T03:39:20.140Z,10.73
2023-05-04T03:40:19.626Z,10.68
2023-05-04T03:41:19.877Z,10.80
2023-05-04T03:42:20.530Z,10.76
2023-05-04T03:43:20.156Z,10.74
2023-05-04T03:44:20.304Z,10.76
2023-05-04T03:45:21.076Z,10.86
2023-05-04T03:46:20.608Z,10.83
2023-05-04T03:47:21.419Z,10.86
2023-05-04T03:48:20.930Z,10.86
2023-05-04T03:49:21.096Z,10.84
2023-05-04T03:50:22.075Z,10.95
2023-05-04T03:51:21.456Z,10.92
2023-05-04T03:52:22.620Z,11.02
2023-05-04T03:53:22.525Z,11.03
2023-05-04T03:54:21.967Z,10.96
2023-05-04T03:55:23.142Z,10.99
2023-05-04T03:56:22.277Z,11.06
2023-05-04T03:57:22.462Z,11.06
2023-05-04T03:58:23.540Z,11.03
2023-05-04T03:59:22.826Z,11.07
2023-05-04T04:00:23.008Z,10.95
2023-05-04T04:01:23.168Z,11.10
2023-05-04T04:02:23.406Z,11.07
2023-05-04T04:03:24.199Z,11.11
2023-05-04T04:04:23.788Z,11.01
2023-05-04T04:05:23.829Z,11.02
2023-05-04T04:06:24.605Z,11.06
2023-05-04T04:07:25.539Z,11.10
2023-05-04T04:08:24.307Z,11.06
2023-05-04T04:09:24.520Z,11.09
2023-05-04T04:10:25.537Z,11.10
2023-05-04T04:11:24.799Z,11.13
2023-05-04T04:12:25.537Z,11.06
2023-05-04T04:13:25.179Z,11.16
2023-05-04T04:14:25.623Z,11.14
2023-05-04T04:15:25.544Z,11.13
2023-05-04T04:16:25.725Z,11.17
2023-05-04T04:17:25.936Z,11.16
2023-05-04T04:18:27.077Z,11.20
2023-05-04T04:19:27.086Z,11.17
2023-05-04T04:20:26.481Z,11.14
2023-05-04T04:21:27.610Z,11.24
2023-05-04T04:22:26.849Z,11.19
2023-05-04T04:23:27.578Z,11.11
2023-05-04T04:24:28.146Z,11.13
2023-05-04T04:25:28.143Z,11.13
2023-05-04T04:26:27.518Z,11.13
2023-05-04T04:27:28.543Z,11.11
2023-05-04T04:28:28.585Z,11.14
2023-05-04T04:29:27.958Z,11.14
2023-05-04T04:30:29.110Z,11.20
2023-05-04T04:31:28.711Z,11.20
2023-05-04T04:32:28.459Z,11.24
2023-05-04T04:33:28.630Z,11.25
2023-05-04T04:34:30.541Z,11.25
2023-05-04T04:35:29.019Z,11.27
2023-05-04T04:36:30.548Z,11.32
2023-05-04T04:37:29.592Z,11.31
2023-05-04T04:38:29.671Z,11.28
2023-05-04T04:39:29.885Z,11.31
2023-05-04T04:40:30.612Z,11.46
2023-05-04T04:41:31.083Z,11.35
2023-05-04T04:42:31.077Z,11.39
2023-05-04T04:43:30.602Z,11.32
2023-05-04T04:44:30.709Z,11.38
2023-05-04T04:45:33.596Z,11.27
2023-05-04T04:46:31.042Z,11.31
2023-05-04T04:47:31.225Z,11.27
2023-05-04T04:48:31.426Z,11.36
2023-05-04T04:49:31.569Z,11.34
2023-05-04T04:50:31.723Z,11.21
2023-05-04T04:51:32.615Z,11.32
2023-05-04T04:52:32.004Z,11.35
2023-05-04T04:53:32.601Z,11.36
2023-05-04T04:54:32.359Z,11.32
2023-05-04T04:55:33.142Z,11.44
2023-05-04T04:56:33.561Z,11.35
2023-05-04T04:57:32.799Z,11.21
2023-05-04T04:58:32.963Z,11.32
2023-05-04T04:59:33.635Z,11.28
2023-05-04T05:00:33.488Z,11.28
2023-05-04T05:01:33.514Z,11.35
2023-05-04T05:02:33.721Z,11.36
2023-05-04T05:03:34.586Z,11.46
2023-05-04T05:04:34.063Z,11.49
2023-05-04T05:05:34.614Z,11.53
2023-05-04T05:06:34.275Z,11.53
2023-05-04T05:07:35.087Z,11.65
2023-05-04T05:08:34.596Z,11.75
2023-05-04T05:09:34.755Z,11.77
2023-05-04T05:10:35.635Z,11.75
2023-05-04T05:11:35.598Z,11.82
2023-05-04T05:12:35.255Z,11.87
2023-05-04T05:13:36.089Z,12.01
2023-05-04T05:14:37.452Z,12.01
2023-05-04T05:15:35.830Z,12.01
2023-05-04T05:16:36.627Z,12.04
2023-05-04T05:17:37.109Z,12.05
2023-05-04T05:18:38.062Z,12.08
2023-05-04T05:19:36.589Z,12.13
2023-05-04T05:20:36.746Z,12.16
2023-05-04T05:21:36.913Z,12.27
2023-05-04T05:22:37.111Z,12.21
2023-05-04T05:23:37.274Z,12.26
2023-05-04T05:24:37.454Z,12.20
2023-05-04T05:25:38.079Z,12.21
2023-05-04T05:26:39.589Z,12.45
2023-05-04T05:27:38.137Z,12.69
2023-05-04T05:28:39.106Z,12.67
2023-05-04T05:29:38.389Z,12.78
2023-05-04T05:30:40.090Z,13.09
2023-05-04T05:31:38.746Z,13.20
2023-05-04T05:32:38.958Z,13.38
2023-05-04T05:33:39.056Z,13.47
2023-05-04T05:34:39.229Z,13.46
2023-05-04T05:35:39.360Z,13.52
2023-05-04T05:36:39.475Z,13.56
2023-05-04T05:37:39.616Z,13.56
2023-05-04T05:38:40.116Z,13.51
2023-05-04T05:39:41.565Z,13.70
2023-05-04T05:40:41.055Z,13.74
2023-05-04T05:41:42.083Z,13.84
2023-05-04T05:42:41.108Z,13.87
2023-05-04T05:43:40.611Z,13.77
2023-05-04T05:44:41.609Z,14.07
2023-05-04T05:45:42.451Z,14.28
2023-05-04T05:46:42.577Z,14.34
2023-05-04T05:47:41.316Z,14.20
2023-05-04T05:48:41.473Z,14.25
2023-05-04T05:49:43.001Z,14.50
2023-05-04T05:50:43.569Z,14.81
2023-05-04T05:51:42.003Z,14.98
2023-05-04T05:52:43.065Z,15.03
2023-05-04T05:53:44.103Z,15.17
2023-05-04T05:54:42.510Z,15.05
2023-05-04T05:55:43.609Z,15.15
2023-05-04T05:56:43.116Z,15.06
2023-05-04T05:57:43.088Z,14.91
2023-05-04T05:58:43.263Z,14.61
2023-05-04T05:59:44.102Z,14.42
2023-05-04T06:00:44.573Z,14.28
2023-05-04T06:01:44.611Z,14.25
2023-05-04T06:02:44.092Z,14.44
2023-05-04T06:03:44.925Z,14.54
2023-05-04T06:04:45.195Z,14.61
2023-05-04T06:05:44.632Z,14.56
2023-05-04T06:06:46.056Z,14.81
2023-05-04T06:07:46.609Z,14.83
2023-05-04T06:08:46.122Z,14.84
2023-05-04T06:09:45.957Z,14.91
2023-05-04T06:10:45.604Z,15.09
2023-05-04T06:11:46.608Z,15.36
2023-05-04T06:12:46.638Z,15.46
2023-05-04T06:13:46.050Z,15.52
2023-05-04T06:14:46.256Z,15.67
2023-05-04T06:15:47.280Z,15.82
2023-05-04T06:16:47.199Z,15.82
2023-05-04T06:17:47.605Z,15.88
2023-05-04T06:18:46.878Z,15.92
2023-05-04T06:19:48.829Z,15.97
2023-05-04T06:20:47.631Z,15.79
2023-05-04T06:21:48.110Z,15.68
2023-05-04T06:22:47.586Z,15.57
2023-05-04T06:23:48.604Z,15.54
2023-05-04T06:24:47.939Z,15.41
2023-05-04T06:25:48.175Z,15.35
2023-05-04T06:26:48.320Z,15.27
2023-05-04T06:27:49.160Z,15.08
2023-05-04T06:28:48.648Z,14.94
2023-05-04T06:29:49.631Z,14.86
2023-05-04T06:30:48.991Z,14.86
2023-05-04T06:31:49.176Z,14.99
2023-05-04T06:32:49.508Z,15.15
2023-05-04T06:33:50.112Z,15.24
2023-05-04T06:34:49.740Z,15.35
2023-05-04T06:35:50.134Z,15.43
2023-05-04T06:36:50.138Z,15.42
2023-05-04T06:38:50.377Z,15.48
2023-05-04T06:39:50.613Z,15.57
2023-05-04T06:40:50.849Z,15.38
2023-05-04T06:41:52.079Z,15.48
2023-05-04T06:42:52.222Z,15.54
2023-05-04T06:43:52.118Z,15.36
2023-05-04T06:44:51.549Z,15.46
2023-05-04T06:45:53.632Z,15.45
2023-05-04T06:46:52.653Z,15.43
2023-05-04T06:47:52.115Z,15.66
2023-05-04T06:48:52.263Z,15.79
2023-05-04T06:49:53.083Z,16.01
2023-05-04T06:50:52.584Z,16.49
2023-05-04T06:51:52.733Z,16.88
2023-05-04T06:52:52.915Z,17.06
2023-05-04T06:53:53.626Z,17.36
2023-05-04T06:54:54.126Z,17.66
2023-05-04T06:55:54.127Z,17.82
2023-05-04T06:56:53.492Z,17.91
2023-05-04T06:57:55.089Z,18.12
2023-05-04T06:58:54.803Z,18.46
2023-05-04T06:59:54.037Z,18.33
2023-05-04T07:00:54.998Z,18.58
2023-05-04T07:01:54.420Z,18.70
2023-05-04T07:02:55.187Z,18.58
2023-05-04T07:03:56.113Z,18.34
2023-05-04T07:04:54.861Z,18.37
2023-05-04T07:05:55.013Z,18.31
2023-05-04T07:06:56.112Z,18.10
2023-05-04T07:07:56.332Z,17.70
2023-05-04T07:08:55.638Z,17.48
2023-05-04T07:09:56.629Z,17.36
2023-05-04T07:10:56.005Z,17.29
2023-05-04T07:11:56.149Z,17.14
2023-05-04T07:12:57.072Z,17.17
2023-05-04T07:13:56.599Z,17.10
2023-05-04T07:14:58.624Z,17.17
2023-05-04T07:15:57.017Z,17.32
2023-05-04T07:16:57.233Z,17.32
2023-05-04T07:17:58.152Z,17.03
2023-05-04T07:18:59.595Z,17.06
2023-05-04T07:20:01.752Z,16.93
2023-05-04T07:21:10.641Z,16.65
2023-05-04T07:22:00.628Z,16.58
2023-05-04T07:22:58.116Z,16.49
2023-05-04T07:23:58.290Z,16.63
2023-05-04T07:24:58.455Z,17.00
2023-05-04T07:25:58.610Z,17.35
2023-05-04T07:26:58.779Z,17.67
2023-05-04T07:27:58.937Z,17.85
2023-05-04T07:28:59.111Z,18.09
2023-05-04T07:30:00.124Z,18.19
2023-05-04T07:30:59.523Z,18.37
2023-05-04T07:32:00.670Z,18.55
2023-05-04T07:32:59.871Z,18.46
2023-05-04T07:34:00.020Z,18.31
2023-05-04T07:35:01.158Z,18.25
2023-05-04T07:36:00.688Z,18.42
2023-05-04T07:37:00.558Z,18.22
2023-05-04T07:38:01.672Z,17.85
2023-05-04T07:39:02.490Z,17.62
2023-05-04T07:40:23.029Z,17.57
2023-05-04T07:41:03.099Z,17.59
2023-05-04T07:42:01.448Z,17.57
2023-05-04T07:43:01.594Z,17.84
2023-05-04T07:44:01.782Z,18.22
2023-05-04T07:45:01.921Z,18.42
2023-05-04T07:46:02.642Z,18.44
2023-05-04T07:47:03.104Z,18.31
2023-05-04T07:48:02.522Z,18.49
2023-05-04T07:49:03.265Z,17.91
2023-05-04T07:50:04.898Z,17.47
2023-05-04T07:51:02.951Z,17.11
2023-05-04T07:52:03.084Z,17.10
2023-05-04T07:53:03.660Z,17.18
2023-05-04T07:54:04.141Z,17.35
2023-05-04T07:55:03.648Z,17.20
2023-05-04T07:56:03.810Z,17.20
2023-05-04T07:57:03.935Z,17.20
2023-05-04T07:58:04.071Z,17.30
2023-05-04T07:59:06.140Z,17.40
2023-05-04T08:00:04.503Z,17.44
2023-05-04T08:01:05.158Z,17.62
2023-05-04T08:02:05.682Z,17.89
2023-05-04T08:03:05.678Z,17.97
2023-05-04T08:04:05.198Z,17.95
2023-05-04T08:05:05.719Z,18.12
2023-05-04T08:06:06.160Z,17.97
2023-05-04T08:07:06.714Z,17.94
2023-05-04T08:08:06.649Z,17.71
2023-05-04T08:09:06.710Z,17.81
2023-05-04T08:10:06.791Z,17.84
2023-05-04T08:11:19.310Z,17.92
2023-05-04T08:12:08.597Z,17.88
2023-05-04T08:13:08.641Z,17.95
2023-05-04T08:14:08.633Z,17.92
2023-05-04T08:15:08.113Z,18.09
2023-05-04T08:16:09.123Z,18.15
2023-05-04T08:17:07.567Z,18.19
2023-05-04T08:18:08.651Z,18.29
2023-05-04T08:19:08.648Z,18.49
2023-05-04T08:20:08.172Z,18.50
2023-05-04T08:21:08.304Z,18.67
2023-05-04T08:22:09.618Z,18.65
2023-05-04T08:23:08.604Z,18.73
2023-05-04T08:24:09.661Z,18.77
2023-05-04T08:25:08.879Z,18.82
2023-05-04T08:26:09.120Z,18.64
2023-05-04T08:27:09.982Z,18.52
2023-05-04T08:28:09.471Z,18.61
2023-05-04T08:29:09.607Z,18.61
2023-05-04T08:30:09.772Z,18.70
2023-05-04T08:31:10.704Z,18.87
2023-05-04T08:32:10.666Z,18.94
2023-05-04T08:33:10.256Z,19.11
2023-05-04T08:34:10.323Z,19.39
2023-05-04T08:35:11.161Z,19.61
2023-05-04T08:36:11.188Z,19.97
2023-05-04T08:37:10.800Z,19.80
2023-05-04T08:38:11.179Z,19.63
2023-05-04T08:39:12.631Z,19.72
2023-05-04T08:40:11.354Z,19.95
2023-05-04T08:41:11.520Z,20.06
2023-05-04T08:42:11.646Z,19.95
2023-05-04T08:43:11.769Z,20.18
2023-05-04T08:44:13.629Z,20.38
2023-05-04T08:45:12.234Z,20.62
2023-05-04T08:46:12.446Z,20.62
2023-05-04T08:47:12.521Z,20.76
2023-05-04T08:48:13.184Z,20.77
2023-05-04T08:49:12.817Z,20.74
2023-05-04T08:50:13.670Z,20.95
2023-05-04T08:51:13.145Z,21.08
2023-05-04T08:52:14.174Z,20.90
2023-05-04T08:53:13.574Z,21.26
2023-05-04T08:54:14.636Z,21.17
2023-05-04T08:55:13.885Z,20.87
2023-05-04T08:56:14.036Z,20.64
2023-05-04T08:57:15.134Z,20.43
2023-05-04T08:58:14.401Z,20.06
2023-05-04T08:59:14.563Z,19.78
2023-05-04T09:00:15.700Z,19.75
2023-05-04T09:01:15.001Z,19.61
2023-05-04T09:02:15.168Z,19.90
2023-05-04T09:03:15.746Z,19.93
2023-05-04T09:04:15.520Z,20.06
2023-05-04T09:05:15.770Z,20.23
2023-05-04T09:06:16.635Z,20.08
2023-05-04T09:07:16.129Z,19.58
2023-05-04T09:08:16.390Z,19.50
2023-05-04T09:09:16.538Z,19.83
2023-05-04T09:10:16.703Z,19.78
2023-05-04T09:11:17.646Z,19.75
2023-05-04T09:12:17.635Z,19.97
2023-05-04T09:13:17.377Z,20.21
2023-05-04T09:14:17.459Z,20.16
2023-05-04T09:15:17.655Z,20.31
2023-05-04T09:16:17.806Z,20.56
2023-05-04T09:17:18.093Z,20.56
2023-05-04T09:18:18.735Z,20.66
2023-05-04T09:19:19.655Z,20.79
2023-05-04T09:20:18.562Z,20.69
2023-05-04T09:21:19.688Z,20.59
2023-05-04T09:22:18.968Z,20.71
2023-05-04T09:23:19.201Z,20.68
2023-05-04T09:24:20.183Z,20.59
2023-05-04T09:25:19.582Z,20.47
2023-05-04T09:26:19.733Z,20.65
2023-05-04T09:27:20.684Z,20.42
2023-05-04T09:28:20.065Z,20.38
2023-05-04T09:29:20.198Z,19.97
2023-05-04T09:30:21.185Z,19.66
2023-05-04T09:31:22.054Z,19.63
2023-05-04T09:32:21.264Z,19.55
2023-05-04T09:33:20.825Z,19.84
2023-05-04T09:34:20.969Z,20.03
2023-05-04T09:35:32.498Z,20.18
2023-05-04T09:36:23.355Z,20.33
2023-05-04T09:37:22.241Z,20.49
2023-05-04T09:38:22.204Z,20.58
2023-05-04T09:39:21.998Z,20.59
2023-05-04T09:40:22.160Z,20.65
2023-05-04T09:41:22.326Z,20.69
2023-05-04T09:42:22.496Z,20.56
2023-05-04T09:43:24.572Z,20.46
2023-05-04T09:44:23.720Z,20.42
2023-05-04T09:45:23.682Z,20.46
2023-05-04T09:46:23.219Z,20.06
2023-05-04T09:47:23.396Z,20.21
2023-05-04T09:48:23.545Z,20.35
2023-05-04T09:49:23.660Z,20.54
2023-05-04T09:50:23.822Z,20.62
2023-05-04T09:51:23.997Z,20.71
2023-05-04T09:52:24.656Z,20.59
2023-05-04T09:53:24.265Z,20.64
2023-05-04T09:54:24.404Z,20.66
2023-05-04T09:55:24.594Z,20.62
2023-05-04T09:56:25.708Z,20.65
2023-05-04T09:57:24.933Z,20.81
2023-05-04T09:58:25.104Z,20.80
2023-05-04T09:59:26.241Z,20.96
2023-05-04T10:00:26.686Z,20.80
2023-05-04T10:01:25.795Z,20.89
2023-05-04T10:02:26.736Z,21.14
2023-05-04T10:03:27.658Z,21.21
2023-05-04T10:04:27.346Z,21.41
2023-05-04T10:05:27.518Z,20.91
2023-05-04T10:06:27.549Z,21.13
2023-05-04T10:07:28.684Z,21.38
2023-05-04T10:08:26.940Z,21.56
2023-05-04T10:09:27.715Z,21.81
2023-05-04T10:10:27.264Z,21.82
2023-05-04T10:11:27.427Z,21.72
2023-05-04T10:12:28.269Z,21.50
2023-05-04T10:13:27.823Z,21.51
2023-05-04T10:14:28.709Z,21.46
2023-05-04T10:15:28.105Z,21.41
2023-05-04T10:16:28.494Z,21.36
2023-05-04T10:17:28.749Z,20.77
2023-05-04T10:18:28.662Z,20.79
2023-05-04T10:19:29.719Z,20.83
2023-05-04T10:20:29.006Z,20.79
2023-05-04T10:21:29.707Z,20.81
2023-05-04T10:22:29.426Z,21.04
2023-05-04T10:23:29.585Z,20.95
2023-05-04T10:24:30.221Z,20.71
2023-05-04T10:25:29.856Z,20.66
2023-05-04T10:26:30.061Z,20.59
2023-05-04T10:27:30.250Z,20.33
2023-05-04T10:28:30.444Z,20.74
2023-05-04T10:29:30.625Z,20.84
2023-05-04T10:30:30.839Z,20.80
2023-05-04T10:31:31.092Z,21.13
2023-05-04T10:32:31.259Z,21.60
2023-05-04T10:33:31.725Z,21.66
2023-05-04T10:34:31.648Z,21.56
2023-05-04T10:35:31.818Z,21.46
2023-05-04T10:36:33.669Z,21.42
2023-05-04T10:37:32.669Z,21.85
2023-05-04T10:38:32.363Z,22.02
2023-05-04T10:39:33.235Z,22.35
2023-05-04T10:40:33.564Z,22.12
2023-05-04T10:41:32.937Z,22.10
2023-05-04T10:42:33.109Z,22.01
2023-05-04T10:43:33.731Z,22.19
2023-05-04T10:44:34.219Z,22.27
2023-05-04T10:45:33.738Z,22.28
2023-05-04T10:46:35.566Z,22.22
2023-05-04T10:47:34.809Z,22.16
2023-05-04T10:48:34.276Z,21.46
2023-05-04T10:49:34.475Z,21.30
2023-05-04T10:50:34.654Z,21.32
2023-05-04T10:51:48.558Z,20.93
2023-05-04T10:52:37.072Z,20.77
2023-05-04T10:53:35.205Z,20.61
2023-05-04T10:54:35.370Z,20.66
2023-05-04T10:55:35.549Z,21.01
2023-05-04T10:56:35.738Z,21.08
2023-05-04T10:57:36.681Z,21.32
2023-05-04T10:58:36.095Z,21.63
2023-05-04T10:59:36.819Z,21.90
2023-05-04T11:00:36.402Z,21.97
2023-05-04T11:01:36.842Z,22.04
2023-05-04T11:02:38.226Z,22.23
2023-05-04T11:03:36.952Z,22.44
2023-05-04T11:04:37.146Z,22.27
2023-05-04T11:05:37.298Z,21.79
2023-05-04T11:06:38.177Z,21.66
2023-05-04T11:07:37.968Z,21.42
2023-05-04T11:08:37.906Z,21.21
2023-05-04T11:09:38.065Z,21.36
2023-05-04T11:10:38.237Z,21.30
2023-05-04T11:11:39.204Z,21.09
2023-05-04T11:12:40.231Z,20.68
2023-05-04T11:13:39.688Z,20.33
2023-05-04T11:14:39.732Z,20.16
2023-05-04T11:15:39.098Z,20.28
2023-05-04T11:16:39.330Z,20.64
2023-05-04T11:17:40.191Z,20.84
2023-05-04T11:18:40.686Z,21.06
2023-05-04T11:19:40.728Z,21.05
2023-05-04T11:20:40.247Z,21.01
2023-05-04T11:21:40.393Z,20.87
2023-05-04T11:22:40.403Z,20.79
2023-05-04T11:23:42.195Z,21.11
2023-05-04T11:24:40.703Z,20.98
2023-05-04T11:25:40.900Z,20.99
2023-05-04T11:26:41.054Z,20.93
2023-05-04T11:27:41.208Z,21.26
2023-05-04T11:28:41.743Z,21.41
2023-05-04T11:29:42.256Z,21.48
2023-05-04T11:30:42.731Z,21.51
2023-05-04T11:31:42.797Z,21.60
2023-05-04T11:32:43.656Z,21.74
2023-05-04T11:33:43.239Z,21.78
2023-05-04T11:34:43.202Z,21.81
2023-05-04T11:35:42.703Z,21.81
2023-05-04T11:36:43.699Z,21.82
2023-05-04T11:37:43.112Z,21.92
2023-05-04T11:38:44.200Z,21.91
2023-05-04T11:39:43.434Z,21.91
2023-05-04T11:40:43.575Z,21.92
2023-05-04T11:41:44.241Z,21.94
2023-05-04T11:42:44.274Z,22.10
2023-05-04T11:43:44.754Z,22.25
2023-05-04T11:44:45.714Z,22.43
2023-05-04T11:45:44.474Z,22.64
2023-05-04T11:46:44.767Z,22.54
2023-05-04T11:47:45.810Z,22.27
2023-05-04T11:48:45.251Z,21.83
2023-05-04T11:49:45.262Z,21.79
2023-05-04T11:50:46.241Z,21.91
2023-05-04T11:51:45.629Z,22.07
2023-05-04T11:52:46.696Z,22.22
2023-05-04T11:53:46.754Z,22.14
2023-05-04T11:54:46.163Z,22.19
2023-05-04T11:55:46.320Z,22.19
2023-05-04T11:56:46.470Z,22.13
2023-05-04T11:57:46.622Z,22.14
2023-05-04T11:58:47.701Z,21.92
2023-05-04T11:59:47.748Z,21.98
2023-05-04T12:00:47.749Z,22.04
2023-05-04T12:01:48.091Z,22.07
2023-05-04T12:02:47.476Z,22.02
2023-05-04T12:03:53.941Z,21.99
2023-05-04T12:04:49.774Z,21.94
2023-05-04T12:05:48.638Z,21.82
2023-05-04T12:06:48.277Z,21.79
2023-05-04T12:07:49.206Z,21.76
2023-05-04T12:08:48.447Z,21.76
2023-05-04T12:09:48.596Z,21.91
2023-05-04T12:10:49.772Z,22.10
2023-05-04T12:11:49.707Z,22.25
2023-05-04T12:12:49.167Z,22.32
2023-05-04T12:13:49.377Z,22.31
2023-05-04T12:14:49.545Z,22.12
2023-05-04T12:15:49.704Z,22.12
2023-05-04T12:16:50.760Z,22.14
2023-05-04T12:17:51.354Z,22.29
2023-05-04T12:18:51.146Z,22.37
2023-05-04T12:19:52.261Z,22.57
2023-05-04T12:20:50.503Z,22.56
2023-05-04T12:21:50.769Z,22.60
2023-05-04T12:22:51.766Z,22.50
2023-05-04T12:23:50.918Z,22.46
2023-05-04T12:24:51.098Z,22.39
2023-05-04T12:25:57.832Z,22.47
2023-05-04T12:26:54.268Z,22.38
2023-05-04T12:27:51.501Z,22.23
2023-05-04T12:28:51.794Z,22.22
2023-05-04T12:29:51.847Z,22.44
2023-05-04T12:30:52.005Z,22.50
2023-05-04T12:31:52.826Z,22.59
2023-05-04T12:32:54.266Z,22.12
2023-05-04T12:33:52.601Z,21.82
2023-05-04T12:34:52.702Z,21.82
2023-05-04T12:35:52.893Z,21.92
2023-05-04T12:36:53.058Z,22.10
2023-05-04T12:37:53.852Z,22.23
2023-05-04T12:38:53.375Z,22.28
2023-05-04T12:39:54.721Z,22.34
2023-05-04T12:40:54.716Z,22.34
2023-05-04T12:41:53.897Z,22.27
2023-05-04T12:42:54.059Z,22.38
2023-05-04T12:43:54.217Z,22.38
2023-05-04T12:44:55.236Z,22.65
2023-05-04T12:45:54.589Z,22.57
2023-05-04T12:46:54.657Z,22.32
2023-05-04T12:47:55.821Z,22.46
2023-05-04T12:48:54.985Z,22.47
2023-05-04T12:49:55.778Z,22.53
2023-05-04T12:50:55.775Z,22.59
2023-05-04T12:51:57.264Z,22.72
2023-05-04T12:52:55.783Z,22.94
2023-05-04T12:53:55.811Z,23.02
2023-05-04T12:54:56.723Z,23.14
2023-05-04T12:55:56.107Z,23.14